メインページ
METAR-TAF:

METAR-TAF

空港 :

新潟空港

新潟, 日本

緯度: 37-57N, 経度: 139-07E, 海抜: 1m

現時点の気象観測

当レポートは48分前の09:00(UTC)に作成
南/南東の風 5kt
気温 4°C
湿度 87%
気圧 1019 hPa
視程10km以上
高度3000ftの雲はほとんどない
高度4000ftの雲は散在している
高度7000ftの千切れ雲あり

METAR: RJSN 130900Z 15005KT 9999 FEW030 SCT040 BKN070 04/02 Q1019

時間: 18:48 (09:48 UTC)

予報

当レポートは4時間42分前の05:06(UTC)に作成
予報は13日の 06時(UTC)から 14日の 12時(UTC)まで有効
南西の風 14kt
視程10km以上
高度2000ftの雲はほとんどない
高度5000ftの千切れ雲あり
13日の 08時(UTC)から 13日の 10時(UTC)まで徐々に
の風 7kt
13日の 14時(UTC)から 13日の 16時(UTC)まで一時的に
視程: 4000m
高度800ftの雲はほとんどない
高度1500ftの千切れ雲あり
高度2000ftの雲はほとんどない, 積乱雲.
弱いにわか雨, 氷霰/雪霰, 靄
13日の 15時(UTC)から 13日の 17時(UTC)まで徐々に
西の風 24kt
13日の 16時(UTC)から 13日の 18時(UTC)まで一時的に
西の風 26kt、最大36ktの突風を伴う
視程: 3000m
高度500ftの雲はほとんどない
高度800ftの千切れ雲あり
高度2000ftの雲はほとんどない, 積乱雲.
激しい雷雨, 雨, 氷霰/雪霰, 靄
13日の 18時(UTC)から 13日の 21時(UTC)まで一時的に
西/北西の風 34kt、最大44ktの突風を伴う

TAF: RJSN 130506Z 1306/1412 23014KT 9999 FEW020 BKN050 BECMG 1308/1310 18007KT TEMPO 1314/1316 4000 -SHRAGS BR FEW008 BKN015 FEW020CB BECMG 1315/1317 28024KT TEMPO 1316/1318 28026G36KT 3000 TSRAGS BR FEW005 BKN008 FEW020CB TEMPO 1318/1321 30034G44KT

4,000以上の空港の気象観測と天気予報(METAR報とTAF報)

利用可能な観測所は地図上に黄色い丸と赤い丸で示す。

丸の上にカーソルを重ねると観測所名を参照できる。

次にクリックすると気象観測と天気予報を参照できる。

マップの切り替え:黒色「×」印の緑ボタンをクリックして拡大、「-」印の緑ボタンをクリックして縮小、緑色の三角印をクリックして隣りの地図に切り替え


METAR-TAF: